Time;durP1;ratioP1;P1;durP2;ratioP2;P2;SDS_P1;SDS_P2;PMS_P1;PMS_P2;Temp;Humidity;BMP_temperature;BMP_pressure;BME280_temperature;BME280_humidity;BME280_pressure;Samples;Min_cycle;Max_cycle;Signal;HPM_P1;HPM_P2
2024/04/24 00:01:33;;;;;;;5.88;1.13;;;;;;;;;;5157521;27;20020;-77
2024/04/24 00:03:59;;;;;;;3.92;1.08;;;;;;;;;;5178239;27;20371;-76
2024/04/24 00:06:24;;;;;;;3.97;1.00;;;;;;;;;;5148384;27;20384;-77
2024/04/24 00:08:49;;;;;;;5.43;1.20;;;;;;;;;;5151901;27;20107;-77
2024/04/24 00:11:18;;;;;;;5.22;1.42;;;;;;;;;;5151348;27;20024;-76
2024/04/24 00:13:43;;;;;;;5.07;1.20;;;;;;;;;;5152908;27;20024;-76
2024/04/24 00:16:09;;;;;;;2.30;1.25;;;;;;;;;;5157479;27;20796;-77
2024/04/24 00:18:34;;;;;;;4.25;1.30;;;;;;;;;;5182645;27;20023;-76
2024/04/24 00:21:00;;;;;;;5.03;1.50;;;;;;;;;;5152765;27;20699;-77
2024/04/24 00:23:25;;;;;;;6.35;1.45;;;;;;;;;;5162388;27;20001;-76
2024/04/24 00:25:54;;;;;;;4.00;1.20;;;;;;;;;;5182574;27;20086;-76
2024/04/24 00:28:20;;;;;;;4.47;1.20;;;;;;;;;;5163123;27;20014;-77
2024/04/24 00:30:45;;;;;;;4.13;1.15;;;;;;;;;;5157938;27;20359;-77
2024/04/24 00:33:11;;;;;;;2.95;1.00;;;;;;;;;;5150118;27;20008;-76
2024/04/24 00:35:36;;;;;;;1.95;0.93;;;;;;;;;;5159448;27;20747;-77
2024/04/24 00:38:01;;;;;;;3.90;1.00;;;;;;;;;;5153783;27;20044;-77
2024/04/24 00:40:27;;;;;;;3.35;1.20;;;;;;;;;;5161610;27;20013;-77
2024/04/24 00:42:52;;;;;;;3.55;0.93;;;;;;;;;;5155636;27;20410;-76
2024/04/24 00:45:18;;;;;;;2.80;0.90;;;;;;;;;;5164558;27;20020;-77
2024/04/24 00:47:44;;;;;;;1.73;1.00;;;;;;;;;;5157132;27;20665;-76
2024/04/24 00:50:15;;;;;;;3.88;1.20;;;;;;;;;;5160121;27;20019;-77
2024/04/24 00:52:41;;;;;;;3.25;1.13;;;;;;;;;;5152476;27;20014;-83
2024/04/24 00:55:08;;;;;;;4.45;1.10;;;;;;;;;;5150186;27;20457;-83
2024/04/24 00:57:34;;;;;;;3.50;0.90;;;;;;;;;;5157485;27;20008;-84
2024/04/24 00:59:59;;;;;;;2.28;0.85;;;;;;;;;;5161204;27;20355;-83
2024/04/24 01:02:25;;;;;;;3.80;1.05;;;;;;;;;;5157090;27;20000;-83
2024/04/24 01:04:51;;;;;;;2.60;0.98;;;;;;;;;;5159524;27;20008;-83
2024/04/24 01:07:16;;;;;;;4.20;1.23;;;;;;;;;;5162242;27;20347;-83
2024/04/24 01:09:42;;;;;;;1.83;0.95;;;;;;;;;;5161371;27;20457;-82
2024/04/24 01:12:07;;;;;;;2.85;1.00;;;;;;;;;;5156302;27;20479;-77
2024/04/24 01:14:32;;;;;;;3.05;0.82;;;;;;;;;;5157212;27;20019;-84
2024/04/24 01:17:03;;;;;;;3.28;0.93;;;;;;;;;;5157913;27;20364;-83
2024/04/24 01:19:45;;;;;;;5.32;1.35;;;;;;;;;;5183610;27;20472;-84
2024/04/24 01:22:26;;;;;;;3.95;1.00;;;;;;;;;;5157347;27;19997;-84
2024/04/24 01:25:23;;;;;;;4.63;1.08;;;;;;;;;;5162732;27;20016;-83
2024/04/24 01:27:48;;;;;;;2.80;1.08;;;;;;;;;;5183446;27;20009;-84
2024/04/24 01:30:13;;;;;;;4.85;1.00;;;;;;;;;;5151601;27;20009;-84
2024/04/24 01:32:39;;;;;;;3.28;1.00;;;;;;;;;;5157198;27;20017;-83
2024/04/24 01:35:04;;;;;;;2.60;0.90;;;;;;;;;;5159558;27;20499;-84
2024/04/24 01:37:30;;;;;;;5.18;1.20;;;;;;;;;;5182213;27;20021;-84
2024/04/24 01:39:56;;;;;;;2.20;0.90;;;;;;;;;;5152131;27;20029;-83
2024/04/24 01:42:21;;;;;;;3.20;1.00;;;;;;;;;;5179287;27;20020;-83
2024/04/24 01:44:47;;;;;;;3.17;0.88;;;;;;;;;;5159194;27;19996;-83
2024/04/24 01:47:12;;;;;;;4.60;1.08;;;;;;;;;;5155140;27;20016;-84
2024/04/24 01:49:38;;;;;;;3.20;0.77;;;;;;;;;;5156874;27;20096;-84
2024/04/24 01:52:03;;;;;;;4.20;1.08;;;;;;;;;;5155280;27;20011;-84
2024/04/24 01:54:29;;;;;;;4.95;1.23;;;;;;;;;;5157860;27;20024;-84
2024/04/24 01:56:54;;;;;;;2.05;0.90;;;;;;;;;;5157940;27;20001;-84
2024/04/24 01:59:19;;;;;;;5.18;0.95;;;;;;;;;;5178853;27;20016;-84
2024/04/24 02:01:45;;;;;;;3.15;1.00;;;;;;;;;;5157906;27;20012;-84
2024/04/24 02:04:10;;;;;;;3.35;1.02;;;;;;;;;;5151662;27;20020;-84
2024/04/24 02:06:36;;;;;;;3.75;0.88;;;;;;;;;;5155754;27;20351;-83
2024/04/24 02:09:01;;;;;;;5.55;1.00;;;;;;;;;;5157334;27;20468;-83
2024/04/24 02:11:27;;;;;;;2.90;1.15;;;;;;;;;;5155545;27;20008;-82
2024/04/24 02:13:52;;;;;;;3.00;1.08;;;;;;;;;;5155607;27;20008;-84
2024/04/24 02:16:17;;;;;;;4.95;1.40;;;;;;;;;;5162475;27;20079;-85
2024/04/24 02:18:43;;;;;;;2.63;0.90;;;;;;;;;;5158345;27;20069;-84
2024/04/24 02:21:09;;;;;;;2.75;0.80;;;;;;;;;;5158022;27;20037;-82
2024/04/24 02:23:34;;;;;;;4.35;1.00;;;;;;;;;;5158556;27;20491;-77
2024/04/24 02:26:09;;;;;;;2.65;0.75;;;;;;;;;;5156716;27;20016;-76
2024/04/24 02:28:35;;;;;;;6.68;1.08;;;;;;;;;;5158278;27;20000;-76
2024/04/24 02:31:01;;;;;;;2.85;0.90;;;;;;;;;;5149911;27;20476;-77
2024/04/24 02:33:26;;;;;;;3.08;0.70;;;;;;;;;;5155149;27;20063;-77
2024/04/24 02:35:52;;;;;;;3.33;0.90;;;;;;;;;;5149609;27;20012;-76
2024/04/24 02:38:18;;;;;;;1.90;0.95;;;;;;;;;;5148979;27;20069;-76
2024/04/24 02:40:44;;;;;;;2.22;0.90;;;;;;;;;;5161021;27;20005;-76
2024/04/24 02:43:09;;;;;;;2.88;0.80;;;;;;;;;;5154449;27;20018;-77
2024/04/24 02:45:37;;;;;;;5.03;1.08;;;;;;;;;;5165644;27;20035;-77
2024/04/24 02:48:03;;;;;;;2.35;0.88;;;;;;;;;;5157770;27;20001;-77
2024/04/24 02:50:28;;;;;;;2.15;0.60;;;;;;;;;;5153123;27;20040;-77
2024/04/24 02:52:54;;;;;;;1.42;0.60;;;;;;;;;;5160693;27;19997;-77
2024/04/24 02:55:19;;;;;;;2.75;0.80;;;;;;;;;;5150014;27;20134;-76
2024/04/24 02:57:45;;;;;;;2.05;0.70;;;;;;;;;;5152510;27;20024;-76
2024/04/24 03:00:11;;;;;;;2.83;1.00;;;;;;;;;;5184295;27;20031;-76
2024/04/24 03:02:36;;;;;;;2.63;0.90;;;;;;;;;;5151564;27;20012;-77
2024/04/24 03:05:02;;;;;;;1.95;0.70;;;;;;;;;;5181845;27;20015;-77
2024/04/24 03:07:28;;;;;;;3.25;0.88;;;;;;;;;;5155802;27;20013;-77
2024/04/24 03:09:53;;;;;;;1.83;0.90;;;;;;;;;;5183551;27;20476;-77
2024/04/24 03:12:19;;;;;;;2.05;0.90;;;;;;;;;;5153169;27;20000;-77
2024/04/24 03:14:47;;;;;;;2.60;0.98;;;;;;;;;;5159020;27;20565;-77
2024/04/24 03:17:13;;;;;;;4.10;1.00;;;;;;;;;;5159409;27;20004;-76
2024/04/24 03:19:38;;;;;;;1.67;0.90;;;;;;;;;;5162000;27;20019;-76
2024/04/24 03:22:04;;;;;;;3.65;1.10;;;;;;;;;;5155223;27;20008;-77
2024/04/24 03:24:31;;;;;;;1.83;1.00;;;;;;;;;;5157691;27;20001;-77
2024/04/24 03:26:57;;;;;;;3.20;1.10;;;;;;;;;;5158743;27;20017;-76
2024/04/24 03:29:22;;;;;;;2.63;1.10;;;;;;;;;;5153793;27;20005;-76
2024/04/24 03:31:48;;;;;;;3.22;0.90;;;;;;;;;;5172739;27;21972;-77
2024/04/24 03:34:13;;;;;;;5.38;1.20;;;;;;;;;;5160458;27;20569;-77
2024/04/24 03:36:39;;;;;;;2.95;1.27;;;;;;;;;;5183623;27;20009;-77
2024/04/24 03:39:04;;;;;;;3.88;1.05;;;;;;;;;;5150469;27;20016;-76
2024/04/24 03:41:29;;;;;;;2.65;0.90;;;;;;;;;;5149504;27;20076;-76
2024/04/24 03:43:55;;;;;;;1.40;0.77;;;;;;;;;;5154324;27;20675;-77
2024/04/24 03:46:20;;;;;;;3.53;1.15;;;;;;;;;;5148850;27;20381;-77
2024/04/24 03:48:45;;;;;;;3.95;0.93;;;;;;;;;;5154519;27;20092;-77
2024/04/24 03:51:11;;;;;;;2.05;0.80;;;;;;;;;;5157241;27;21824;-76
2024/04/24 03:53:36;;;;;;;2.10;1.00;;;;;;;;;;5150734;27;20106;-76
2024/04/24 03:56:02;;;;;;;4.75;1.27;;;;;;;;;;5155830;27;20022;-77
2024/04/24 03:58:27;;;;;;;6.00;1.17;;;;;;;;;;5163851;27;20012;-76
2024/04/24 04:00:53;;;;;;;2.95;1.13;;;;;;;;;;5181958;27;20036;-77
2024/04/24 04:03:18;;;;;;;2.65;0.77;;;;;;;;;;5160790;27;20333;-77
2024/04/24 04:05:44;;;;;;;2.95;0.82;;;;;;;;;;5149329;27;20504;-77
2024/04/24 04:08:09;;;;;;;3.92;1.45;;;;;;;;;;5150376;27;20000;-76
2024/04/24 04:10:35;;;;;;;1.65;0.77;;;;;;;;;;5157691;27;20023;-76
2024/04/24 04:13:02;;;;;;;5.18;1.08;;;;;;;;;;5161624;27;20546;-77
2024/04/24 04:15:27;;;;;;;4.43;1.08;;;;;;;;;;5159946;27;20013;-77
2024/04/24 04:17:53;;;;;;;3.35;0.98;;;;;;;;;;5155369;27;20005;-77
2024/04/24 04:20:18;;;;;;;3.45;1.00;;;;;;;;;;5154129;27;20013;-76
2024/04/24 04:22:44;;;;;;;3.92;0.90;;;;;;;;;;5161291;27;20012;-77
2024/04/24 04:25:10;;;;;;;3.13;0.88;;;;;;;;;;5148317;27;20092;-77
2024/04/24 04:27:35;;;;;;;6.00;1.50;;;;;;;;;;5155568;27;20013;-76
2024/04/24 04:30:01;;;;;;;5.82;1.30;;;;;;;;;;5188016;27;20008;-77
2024/04/24 04:32:26;;;;;;;4.55;0.98;;;;;;;;;;5160420;27;20008;-77
2024/04/24 04:34:52;;;;;;;6.13;1.00;;;;;;;;;;5171038;27;20552;-76
2024/04/24 04:37:18;;;;;;;4.53;1.05;;;;;;;;;;5186637;27;20522;-77
2024/04/24 04:39:44;;;;;;;5.65;1.25;;;;;;;;;;5194816;27;20057;-77
2024/04/24 04:42:09;;;;;;;4.63;1.25;;;;;;;;;;5170513;27;20013;-76
2024/04/24 04:44:35;;;;;;;2.85;1.10;;;;;;;;;;5161910;27;20008;-76
2024/04/24 04:47:00;;;;;;;3.50;1.10;;;;;;;;;;5152918;27;20001;-77
2024/04/24 04:49:25;;;;;;;4.93;1.20;;;;;;;;;;5163835;27;20004;-77
2024/04/24 04:51:51;;;;;;;5.65;1.30;;;;;;;;;;5150926;27;20001;-77
2024/04/24 04:54:16;;;;;;;4.60;0.90;;;;;;;;;;5156377;27;20338;-76
2024/04/24 04:56:42;;;;;;;2.67;1.00;;;;;;;;;;5190768;27;20027;-76
2024/04/24 04:59:07;;;;;;;3.22;0.93;;;;;;;;;;5156465;27;20476;-77
2024/04/24 05:01:33;;;;;;;3.50;1.00;;;;;;;;;;5183407;27;20005;-76
2024/04/24 05:03:59;;;;;;;4.35;0.95;;;;;;;;;;5170731;27;20012;-77
2024/04/24 05:06:25;;;;;;;4.88;1.10;;;;;;;;;;5156694;27;20045;-77
2024/04/24 05:08:51;;;;;;;3.45;0.95;;;;;;;;;;5159602;27;20049;-77
2024/04/24 05:11:16;;;;;;;3.65;1.00;;;;;;;;;;5156190;27;20009;-76
2024/04/24 05:13:42;;;;;;;5.55;1.10;;;;;;;;;;5151152;27;20048;-77
2024/04/24 05:16:11;;;;;;;3.42;0.93;;;;;;;;;;5161115;27;20020;-76
2024/04/24 05:18:37;;;;;;;5.13;0.98;;;;;;;;;;5186358;27;20020;-76
2024/04/24 05:21:03;;;;;;;4.30;0.90;;;;;;;;;;5165729;27;20000;-76
2024/04/24 05:23:28;;;;;;;6.22;1.00;;;;;;;;;;5159005;27;20005;-76
2024/04/24 05:25:55;;;;;;;4.07;0.90;;;;;;;;;;5165918;27;20013;-76
2024/04/24 05:31:05;;;;;;;4.53;0.73;;;;;;;;;;5165657;27;20084;-76
2024/04/24 05:33:30;;;;;;;3.22;0.60;;;;;;;;;;5172433;27;20012;-76
2024/04/24 05:35:56;;;;;;;3.60;0.73;;;;;;;;;;5172524;27;20352;-76
2024/04/24 05:38:21;;;;;;;4.28;0.90;;;;;;;;;;5146259;27;20008;-76
2024/04/24 05:40:47;;;;;;;5.82;0.85;;;;;;;;;;5152398;27;20080;-76
2024/04/24 05:43:12;;;;;;;2.45;0.60;;;;;;;;;;5156885;27;20037;-77
2024/04/24 05:45:37;;;;;;;2.40;0.80;;;;;;;;;;5167455;27;20016;-77
2024/04/24 05:48:03;;;;;;;3.58;0.75;;;;;;;;;;5178763;27;20003;-76
2024/04/24 05:50:29;;;;;;;3.65;0.60;;;;;;;;;;5157520;27;20001;-76
2024/04/24 05:52:54;;;;;;;4.10;0.77;;;;;;;;;;5165021;27;20004;-77
2024/04/24 05:55:20;;;;;;;1.35;0.52;;;;;;;;;;5158977;27;20013;-76
2024/04/24 05:57:45;;;;;;;4.25;0.93;;;;;;;;;;5165154;27;20692;-76
2024/04/24 06:00:12;;;;;;;5.53;0.95;;;;;;;;;;5169458;27;20012;-76
2024/04/24 06:02:37;;;;;;;4.90;0.90;;;;;;;;;;5198964;27;20016;-77
2024/04/24 06:05:03;;;;;;;2.75;0.70;;;;;;;;;;5161231;27;20080;-77
2024/04/24 06:07:29;;;;;;;4.20;0.75;;;;;;;;;;5165191;27;20384;-76
2024/04/24 06:09:54;;;;;;;4.32;0.90;;;;;;;;;;5184342;27;20056;-76
2024/04/24 06:12:20;;;;;;;3.13;0.70;;;;;;;;;;5154304;27;20005;-77
2024/04/24 06:14:45;;;;;;;2.13;0.65;;;;;;;;;;5166786;27;20024;-77
2024/04/24 06:17:11;;;;;;;3.58;0.80;;;;;;;;;;5155920;27;20004;-76
2024/04/24 06:19:37;;;;;;;4.47;0.98;;;;;;;;;;5159638;27;21892;-76
2024/04/24 06:22:03;;;;;;;4.05;0.93;;;;;;;;;;5158683;27;20017;-76
2024/04/24 06:24:29;;;;;;;6.80;1.33;;;;;;;;;;5159232;27;20084;-76
2024/04/24 06:26:55;;;;;;;2.50;1.10;;;;;;;;;;5157585;27;20032;-77
2024/04/24 06:29:20;;;;;;;2.80;0.77;;;;;;;;;;5153137;27;20467;-76
2024/04/24 06:31:46;;;;;;;4.22;0.90;;;;;;;;;;5181720;27;20159;-76
2024/04/24 06:34:11;;;;;;;3.35;0.80;;;;;;;;;;5160087;27;20008;-77
2024/04/24 06:36:37;;;;;;;7.45;1.17;;;;;;;;;;5161431;27;20058;-76
2024/04/24 06:39:04;;;;;;;5.35;0.90;;;;;;;;;;5187625;27;20078;-76
2024/04/24 06:41:29;;;;;;;4.75;0.90;;;;;;;;;;5158631;27;20004;-76
2024/04/24 06:43:55;;;;;;;3.33;0.70;;;;;;;;;;5164764;27;20005;-77
2024/04/24 06:46:22;;;;;;;6.05;1.23;;;;;;;;;;5164478;27;19997;-76
2024/04/24 06:48:48;;;;;;;7.47;1.23;;;;;;;;;;5156378;27;20032;-76
2024/04/24 06:51:14;;;;;;;6.32;1.10;;;;;;;;;;5155904;27;20502;-76
2024/04/24 06:53:40;;;;;;;4.72;0.82;;;;;;;;;;5184928;27;20093;-76
2024/04/24 06:56:05;;;;;;;9.07;1.40;;;;;;;;;;5170724;27;20033;-76
2024/04/24 06:58:32;;;;;;;6.30;1.15;;;;;;;;;;5166805;27;20004;-76
2024/04/24 07:00:58;;;;;;;6.95;1.58;;;;;;;;;;5154133;27;20476;-77
2024/04/24 07:03:26;;;;;;;4.68;1.00;;;;;;;;;;5163356;27;20016;-76
2024/04/24 07:05:53;;;;;;;4.05;1.08;;;;;;;;;;5176767;27;20009;-76
2024/04/24 07:08:22;;;;;;;8.20;1.50;;;;;;;;;;5169391;27;20000;-76
2024/04/24 07:10:47;;;;;;;9.48;1.52;;;;;;;;;;5157875;27;20000;-76
2024/04/24 07:13:13;;;;;;;6.55;1.38;;;;;;;;;;5168649;27;20023;-81
2024/04/24 07:15:40;;;;;;;4.75;1.33;;;;;;;;;;5167382;27;20005;-82
2024/04/24 07:18:06;;;;;;;4.95;1.00;;;;;;;;;;5156696;27;20005;-82
2024/04/24 07:20:31;;;;;;;7.20;1.40;;;;;;;;;;5164188;27;20015;-82
2024/04/24 07:22:57;;;;;;;4.75;0.80;;;;;;;;;;5155074;27;20013;-82
2024/04/24 07:25:23;;;;;;;5.10;1.05;;;;;;;;;;5189672;27;20000;-82
2024/04/24 07:27:48;;;;;;;5.47;0.95;;;;;;;;;;5182733;27;20029;-83
2024/04/24 07:30:14;;;;;;;5.18;1.02;;;;;;;;;;5151665;27;20016;-83
2024/04/24 07:32:40;;;;;;;4.13;1.10;;;;;;;;;;5160278;27;20476;-82
2024/04/24 07:35:05;;;;;;;5.20;0.90;;;;;;;;;;5165246;27;20055;-82
2024/04/24 07:37:31;;;;;;;4.47;1.05;;;;;;;;;;5160026;27;20009;-81
2024/04/24 07:39:57;;;;;;;7.85;1.45;;;;;;;;;;5168304;27;20005;-82
2024/04/24 07:42:22;;;;;;;6.90;1.23;;;;;;;;;;5151851;27;20004;-82
2024/04/24 07:44:47;;;;;;;4.68;1.17;;;;;;;;;;5155604;27;20337;-82
2024/04/24 07:47:13;;;;;;;5.90;1.05;;;;;;;;;;5157880;27;20017;-83
2024/04/24 07:49:39;;;;;;;3.85;0.90;;;;;;;;;;5160553;27;20076;-83
2024/04/24 07:52:04;;;;;;;5.68;1.00;;;;;;;;;;5166676;27;20015;-82
2024/04/24 07:54:30;;;;;;;7.80;1.30;;;;;;;;;;5167447;27;20036;-83
2024/04/24 07:56:56;;;;;;;4.00;1.17;;;;;;;;;;5155752;27;20032;-83
2024/04/24 07:59:21;;;;;;;6.47;1.23;;;;;;;;;;5158620;27;20042;-82
2024/04/24 08:01:47;;;;;;;4.47;0.90;;;;;;;;;;5191386;27;20095;-81
2024/04/24 08:04:12;;;;;;;6.05;1.52;;;;;;;;;;5165634;27;20057;-82
2024/04/24 08:06:41;;;;;;;5.80;0.90;;;;;;;;;;5166711;27;20009;-82
2024/04/24 08:09:07;;;;;;;8.27;1.35;;;;;;;;;;5166650;27;20010;-82
2024/04/24 08:11:32;;;;;;;4.57;0.98;;;;;;;;;;5156003;27;20004;-82
2024/04/24 08:14:02;;;;;;;3.85;0.88;;;;;;;;;;5165254;27;20005;-82
2024/04/24 08:16:29;;;;;;;5.97;1.08;;;;;;;;;;5158825;27;20025;-83
2024/04/24 08:18:55;;;;;;;7.15;1.10;;;;;;;;;;5161070;27;20097;-81
2024/04/24 08:21:20;;;;;;;5.65;1.13;;;;;;;;;;5163031;27;20012;-82
2024/04/24 08:23:46;;;;;;;9.13;2.03;;;;;;;;;;5163155;27;20020;-82
2024/04/24 08:26:11;;;;;;;9.40;1.33;;;;;;;;;;5163677;27;20019;-82
2024/04/24 08:28:36;;;;;;;4.90;1.05;;;;;;;;;;5157727;27;20344;-82
2024/04/24 08:31:02;;;;;;;5.55;1.10;;;;;;;;;;5155712;27;20017;-82
2024/04/24 08:33:32;;;;;;;6.47;1.10;;;;;;;;;;5156125;27;20017;-77
2024/04/24 08:36:04;;;;;;;8.73;1.35;;;;;;;;;;5173468;27;20004;-77
2024/04/24 08:38:30;;;;;;;3.33;0.90;;;;;;;;;;5155541;27;20008;-77
2024/04/24 08:41:22;;;;;;;6.78;1.20;;;;;;;;;;5188108;27;20016;-77
2024/04/24 08:43:50;;;;;;;5.80;0.90;;;;;;;;;;5189269;27;20037;-77
2024/04/24 08:46:16;;;;;;;6.40;1.40;;;;;;;;;;5166889;27;20019;-77
2024/04/24 08:48:43;;;;;;;6.53;1.05;;;;;;;;;;5157094;27;20009;-77
2024/04/24 08:51:10;;;;;;;6.40;1.30;;;;;;;;;;5171618;27;20018;-77
2024/04/24 08:53:36;;;;;;;3.92;1.23;;;;;;;;;;5195838;27;20022;-77
2024/04/24 08:56:10;;;;;;;3.83;1.00;;;;;;;;;;5172605;27;20012;-77
2024/04/24 08:58:37;;;;;;;3.10;0.80;;;;;;;;;;5129787;27;20020;-76
2024/04/24 09:01:05;;;;;;;2.92;0.80;;;;;;;;;;5132520;27;20126;-77
2024/04/24 09:03:41;;;;;;;3.72;1.00;;;;;;;;;;5164525;27;20364;-77
2024/04/24 09:06:09;;;;;;;5.75;0.88;;;;;;;;;;5185245;27;20027;-76
2024/04/24 09:08:35;;;;;;;6.85;0.90;;;;;;;;;;5165118;27;20016;-77
2024/04/24 09:11:01;;;;;;;4.07;1.33;;;;;;;;;;5191031;27;20013;-77
2024/04/24 09:13:28;;;;;;;6.10;1.38;;;;;;;;;;5157689;27;20008;-77
2024/04/24 09:15:55;;;;;;;3.97;0.90;;;;;;;;;;5149395;27;20480;-77
2024/04/24 09:18:21;;;;;;;6.55;0.80;;;;;;;;;;5171463;27;20015;-77
2024/04/24 09:20:47;;;;;;;6.82;1.00;;;;;;;;;;5165709;27;20004;-77
2024/04/24 09:23:17;;;;;;;4.75;0.95;;;;;;;;;;5183251;27;20350;-77
2024/04/24 09:25:43;;;;;;;4.43;1.05;;;;;;;;;;5164386;27;20518;-77
2024/04/24 09:28:08;;;;;;;3.08;0.90;;;;;;;;;;5169900;27;20015;-77
2024/04/24 09:30:34;;;;;;;6.07;0.98;;;;;;;;;;5156495;27;20027;-76
2024/04/24 09:32:59;;;;;;;4.78;1.10;;;;;;;;;;5155682;27;20058;-77
2024/04/24 09:35:24;;;;;;;4.47;1.27;;;;;;;;;;5159216;27;20687;-77
2024/04/24 09:37:53;;;;;;;5.35;1.10;;;;;;;;;;5155013;27;20043;-77
2024/04/24 09:40:19;;;;;;;6.40;1.30;;;;;;;;;;5166691;27;20021;-77
2024/04/24 09:42:45;;;;;;;5.80;1.30;;;;;;;;;;5159564;27;20005;-77
2024/04/24 09:45:11;;;;;;;6.05;1.30;;;;;;;;;;5162776;27;20053;-77
2024/04/24 09:47:41;;;;;;;5.63;0.93;;;;;;;;;;5160626;27;20460;-77
2024/04/24 09:50:06;;;;;;;5.10;1.02;;;;;;;;;;5153682;27;20030;-77
2024/04/24 09:52:34;;;;;;;7.93;1.50;;;;;;;;;;5145316;27;20017;-77
2024/04/24 09:55:00;;;;;;;3.95;1.00;;;;;;;;;;5152745;27;20363;-77
2024/04/24 09:57:31;;;;;;;8.38;1.52;;;;;;;;;;5154249;27;20056;-77
2024/04/24 09:59:57;;;;;;;4.30;1.40;;;;;;;;;;5144067;27;20008;-77
2024/04/24 10:02:26;;;;;;;10.40;2.13;;;;;;;;;;5158274;27;20017;-77
2024/04/24 10:04:57;;;;;;;7.50;1.52;;;;;;;;;;5172683;27;20043;-77
2024/04/24 10:07:25;;;;;;;6.90;1.60;;;;;;;;;;5152314;27;20337;-77
2024/04/24 10:09:51;;;;;;;5.90;1.30;;;;;;;;;;5182071;27;20109;-77
2024/04/24 10:12:25;;;;;;;5.25;1.38;;;;;;;;;;5144292;27;20087;-77
2024/04/24 10:15:06;;;;;;;7.40;1.27;;;;;;;;;;5150674;27;20171;-77
2024/04/24 10:17:35;;;;;;;5.95;1.35;;;;;;;;;;5148563;27;20178;-77
2024/04/24 10:20:02;;;;;;;3.55;0.85;;;;;;;;;;5155860;27;20009;-77
2024/04/24 10:22:32;;;;;;;2.90;0.90;;;;;;;;;;5146419;27;20025;-76
2024/04/24 10:24:58;;;;;;;2.97;0.90;;;;;;;;;;5156077;27;20020;-76
2024/04/24 10:27:25;;;;;;;4.05;1.00;;;;;;;;;;5144009;27;20020;-77
2024/04/24 10:29:52;;;;;;;4.38;0.90;;;;;;;;;;5143340;27;20101;-76
2024/04/24 10:32:19;;;;;;;5.43;1.10;;;;;;;;;;5134624;27;20009;-77
2024/04/24 10:34:46;;;;;;;3.85;1.20;;;;;;;;;;5138523;27;20015;-77
2024/04/24 10:37:12;;;;;;;4.70;1.30;;;;;;;;;;5143337;27;20019;-77
2024/04/24 10:39:44;;;;;;;4.95;0.90;;;;;;;;;;5163323;27;20013;-76
2024/04/24 10:42:10;;;;;;;2.55;0.90;;;;;;;;;;5134235;27;20082;-77
2024/04/24 10:44:36;;;;;;;2.58;0.90;;;;;;;;;;5133094;27;20017;-77
2024/04/24 10:47:02;;;;;;;3.28;1.00;;;;;;;;;;5144990;27;20015;-76
2024/04/24 10:49:30;;;;;;;3.47;1.15;;;;;;;;;;5132472;27;20016;-77
2024/04/24 10:51:56;;;;;;;5.50;1.30;;;;;;;;;;5142907;27;20027;-77
2024/04/24 10:54:28;;;;;;;6.68;1.50;;;;;;;;;;5132054;27;20300;-82
2024/04/24 10:56:56;;;;;;;3.20;1.40;;;;;;;;;;5143153;27;20095;-82
2024/04/24 10:59:32;;;;;;;3.72;1.05;;;;;;;;;;5138373;27;20097;-82
2024/04/24 11:02:18;;;;;;;5.00;1.30;;;;;;;;;;5155326;27;20020;-82
2024/04/24 11:04:43;;;;;;;4.68;1.08;;;;;;;;;;5153694;27;20032;-82
2024/04/24 11:07:09;;;;;;;2.85;0.90;;;;;;;;;;5147633;27;20005;-82
2024/04/24 11:09:37;;;;;;;3.95;1.10;;;;;;;;;;5158325;27;20371;-81
2024/04/24 11:12:03;;;;;;;6.22;1.20;;;;;;;;;;5147100;27;20012;-82
2024/04/24 11:14:42;;;;;;;4.30;0.90;;;;;;;;;;5146288;27;20009;-82
2024/04/24 11:17:07;;;;;;;4.18;0.88;;;;;;;;;;5145531;27;20087;-82
2024/04/24 11:19:33;;;;;;;5.60;0.85;;;;;;;;;;5156536;27;20440;-82
2024/04/24 11:21:59;;;;;;;3.75;1.10;;;;;;;;;;5152512;27;20083;-82
2024/04/24 11:24:31;;;;;;;7.00;1.13;;;;;;;;;;5151158;27;20008;-82
2024/04/24 11:26:57;;;;;;;5.60;1.10;;;;;;;;;;5144634;27;20425;-82
2024/04/24 11:29:24;;;;;;;3.08;1.38;;;;;;;;;;5146540;27;20091;-81
2024/04/24 11:31:51;;;;;;;5.95;1.15;;;;;;;;;;5143463;27;20008;-82
2024/04/24 11:34:19;;;;;;;6.30;1.10;;;;;;;;;;5147387;27;20110;-82
2024/04/24 11:36:45;;;;;;;5.57;1.30;;;;;;;;;;5150138;27;20044;-82
2024/04/24 11:39:15;;;;;;;4.95;1.17;;;;;;;;;;5163496;27;20053;-82
2024/04/24 11:41:41;;;;;;;4.55;1.17;;;;;;;;;;5144663;27;20005;-83
2024/04/24 11:44:07;;;;;;;4.97;0.90;;;;;;;;;;5136017;27;20340;-82
2024/04/24 11:46:34;;;;;;;6.10;1.40;;;;;;;;;;5153975;27;20001;-83
2024/04/24 11:49:00;;;;;;;6.15;1.15;;;;;;;;;;5138829;27;20044;-82
2024/04/24 11:51:27;;;;;;;3.97;1.20;;;;;;;;;;5135139;27;20550;-82
2024/04/24 11:53:53;;;;;;;4.10;1.20;;;;;;;;;;5145558;27;20521;-83
2024/04/24 11:56:23;;;;;;;4.78;1.50;;;;;;;;;;5142857;27;20009;-83
2024/04/24 11:58:48;;;;;;;6.80;1.23;;;;;;;;;;5153449;27;20016;-83
2024/04/24 12:01:15;;;;;;;6.65;0.75;;;;;;;;;;5155750;27;20009;-83
2024/04/24 12:03:43;;;;;;;2.67;0.70;;;;;;;;;;5149736;27;20019;-78
2024/04/24 12:06:08;;;;;;;4.78;0.82;;;;;;;;;;5147346;27;20020;-79
2024/04/24 12:08:34;;;;;;;3.72;0.70;;;;;;;;;;5176072;27;20493;-78
2024/04/24 12:11:02;;;;;;;4.95;1.10;;;;;;;;;;5140308;27;20001;-78
2024/04/24 12:13:32;;;;;;;4.72;0.82;;;;;;;;;;5141450;27;20005;-79
2024/04/24 12:15:59;;;;;;;3.90;0.80;;;;;;;;;;5144514;27;20011;-78
2024/04/24 12:18:26;;;;;;;3.45;0.90;;;;;;;;;;5138121;27;20016;-79
2024/04/24 12:20:52;;;;;;;7.00;1.00;;;;;;;;;;5142996;27;20001;-78
2024/04/24 12:23:23;;;;;;;5.10;0.90;;;;;;;;;;5171084;27;20013;-79
2024/04/24 12:25:49;;;;;;;4.32;0.90;;;;;;;;;;5149696;27;20032;-78
2024/04/24 12:28:14;;;;;;;3.60;0.82;;;;;;;;;;5146056;27;20112;-79
2024/04/24 12:30:40;;;;;;;6.43;1.20;;;;;;;;;;5153114;27;19997;-79
2024/04/24 12:33:06;;;;;;;8.98;1.20;;;;;;;;;;5174851;27;20622;-78
2024/04/24 12:35:32;;;;;;;5.75;1.23;;;;;;;;;;5177254;27;20871;-79
2024/04/24 12:37:58;;;;;;;7.78;1.20;;;;;;;;;;5145529;27;20005;-78
2024/04/24 12:40:23;;;;;;;5.78;1.23;;;;;;;;;;5175421;27;20021;-79
2024/04/24 12:42:48;;;;;;;7.28;1.65;;;;;;;;;;5155732;27;19996;-78
2024/04/24 12:45:14;;;;;;;5.50;1.30;;;;;;;;;;5149134;27;20016;-79
2024/04/24 12:47:39;;;;;;;8.60;1.40;;;;;;;;;;5182802;27;20068;-79
2024/04/24 12:50:05;;;;;;;4.97;1.30;;;;;;;;;;5145551;27;20020;-79
2024/04/24 12:52:30;;;;;;;5.20;1.30;;;;;;;;;;5145052;27;20041;-79
2024/04/24 12:54:56;;;;;;;6.10;1.17;;;;;;;;;;5148583;27;20001;-79
2024/04/24 12:57:22;;;;;;;5.88;1.10;;;;;;;;;;5149936;27;20009;-79
2024/04/24 12:59:47;;;;;;;4.72;1.17;;;;;;;;;;5146407;27;20068;-79
2024/04/24 13:02:12;;;;;;;8.35;1.10;;;;;;;;;;5151284;27;20001;-80
2024/04/24 13:04:38;;;;;;;6.28;1.35;;;;;;;;;;5172000;27;20030;-79
2024/04/24 13:07:03;;;;;;;6.53;1.15;;;;;;;;;;5148216;27;20027;-80
2024/04/24 13:09:28;;;;;;;4.47;1.40;;;;;;;;;;5149438;27;20008;-79
2024/04/24 13:11:54;;;;;;;5.93;1.40;;;;;;;;;;5144850;27;20452;-79
2024/04/24 13:14:19;;;;;;;6.25;1.23;;;;;;;;;;5155557;27;20056;-77
2024/04/24 13:16:45;;;;;;;6.60;1.20;;;;;;;;;;5146087;27;20488;-79
2024/04/24 13:19:10;;;;;;;4.13;0.90;;;;;;;;;;5142889;27;20023;-78
2024/04/24 13:21:36;;;;;;;3.15;0.85;;;;;;;;;;5144346;27;20779;-79
2024/04/24 13:24:01;;;;;;;5.18;0.90;;;;;;;;;;5175668;27;20461;-79
2024/04/24 13:26:27;;;;;;;5.57;1.02;;;;;;;;;;5175247;27;21067;-79
2024/04/24 13:28:52;;;;;;;5.28;1.02;;;;;;;;;;5147065;27;20008;-79
2024/04/24 13:31:18;;;;;;;5.07;1.13;;;;;;;;;;5174722;27;20009;-79
2024/04/24 13:33:43;;;;;;;14.40;0.90;;;;;;;;;;5157000;27;20020;-79
2024/04/24 13:36:08;;;;;;;5.05;1.05;;;;;;;;;;5145961;27;20088;-80
2024/04/24 13:38:34;;;;;;;3.28;1.00;;;;;;;;;;5137231;27;20019;-79
2024/04/24 13:41:03;;;;;;;3.83;1.10;;;;;;;;;;5173732;27;21637;-79
2024/04/24 13:43:29;;;;;;;5.60;1.10;;;;;;;;;;5151282;27;20019;-79
2024/04/24 13:45:54;;;;;;;2.40;0.93;;;;;;;;;;5163758;27;20000;-80
2024/04/24 13:48:19;;;;;;;6.25;1.00;;;;;;;;;;5151752;27;20019;-79
2024/04/24 13:50:45;;;;;;;2.05;0.80;;;;;;;;;;5154342;27;20001;-79
2024/04/24 13:53:10;;;;;;;5.55;0.93;;;;;;;;;;5146355;27;20935;-78
2024/04/24 13:55:36;;;;;;;6.13;1.17;;;;;;;;;;5142592;27;20932;-80
2024/04/24 13:58:01;;;;;;;6.00;1.10;;;;;;;;;;5138254;27;19997;-79
2024/04/24 14:00:27;;;;;;;4.82;1.25;;;;;;;;;;5170890;27;20028;-79
2024/04/24 14:02:52;;;;;;;2.50;0.90;;;;;;;;;;5146962;27;20005;-79
2024/04/24 14:05:17;;;;;;;3.63;1.00;;;;;;;;;;5153464;27;20837;-79
2024/04/24 14:07:43;;;;;;;5.32;1.13;;;;;;;;;;5167955;27;20009;-78
2024/04/24 14:10:08;;;;;;;5.05;1.10;;;;;;;;;;5147157;27;20020;-79
2024/04/24 14:12:36;;;;;;;5.82;1.00;;;;;;;;;;5156597;27;20021;-78
2024/04/24 14:15:02;;;;;;;5.40;1.05;;;;;;;;;;5149537;27;20016;-79
2024/04/24 14:17:29;;;;;;;3.53;0.80;;;;;;;;;;5150959;27;20005;-79
2024/04/24 14:19:55;;;;;;;1.27;0.45;;;;;;;;;;5150178;27;20026;-79
2024/04/24 14:22:20;;;;;;;1.92;0.60;;;;;;;;;;5164229;27;20044;-78
2024/04/24 14:24:46;;;;;;;2.38;0.57;;;;;;;;;;5158039;27;20524;-84
2024/04/24 14:27:11;;;;;;;4.05;0.60;;;;;;;;;;5166483;27;20019;-84
2024/04/24 14:29:37;;;;;;;3.80;0.50;;;;;;;;;;5144184;27;20012;-84
2024/04/24 14:32:03;;;;;;;2.53;0.60;;;;;;;;;;5155196;27;20096;-84
2024/04/24 14:34:29;;;;;;;1.73;0.60;;;;;;;;;;5143886;27;20070;-84
2024/04/24 14:36:55;;;;;;;1.25;0.50;;;;;;;;;;5152509;27;20013;-84
2024/04/24 14:39:23;;;;;;;2.03;0.52;;;;;;;;;;5182131;27;20551;-83
2024/04/24 14:41:51;;;;;;;1.17;0.50;;;;;;;;;;5152670;27;19997;-84